Artemis — SWZE — position and weather

sailwx.info

Track history (hours):
 
Tides and Currents Weather Stations Pressure Air Temp Water Temp Dewpoint Dewpoint Depression Visibility Wind Speed Wind Dir Waves Ship Positions

Artemis

Last reported at 2017-Apr-27 10:14 UTC. Time now 2017-Apr-27 18:54 UTC.
Position N 37°30' E 024°44'.

Length 89 m; draft 3.4 m.

Type: Ship. MMSI: 237026300.

Date/timePositionNaut miles runAvg speedWind from/ knotsBaromVisibWave heightAir tempDewpointWater temp
2017-Apr-27 10:14N 37°30' E 024°44'314.8
2017-Apr-27 10:01N 37°31' E 024°48'713.9
2017-Apr-27 09:30N 37°30' E 024°57'3 6.2
2017-Apr-27 08:58N 37°26' E 024°56'4 8.9
2017-Apr-27 08:31N 37°30' E 024°56'714.7
2017-Apr-27 08:00N 37°37' E 024°52'7 3.5
2017-Apr-27 05:57N 37°44' E 024°50'814.8
2017-Apr-27 05:24N 37°39' E 024°58'614.6
2017-Apr-27 05:01N 37°35' E 025°03'510.5
2017-Apr-27 04:29N 37°32' E 025°09'714.6
2017-Apr-27 04:00N 37°25' E 025°08'714.5
2017-Apr-27 03:30N 37°18' E 025°08'714.6
2017-Apr-27 03:00N 37°10' E 025°08'5 0.7
2017-Apr-26 19:25N 37°05' E 025°08'2 6.0
2017-Apr-26 19:00N 37°07' E 025°07'714.9
2017-Apr-26 18:30N 37°15' E 025°09'714.9
2017-Apr-26 18:00N 37°22' E 025°09'815.0
2017-Apr-26 17:30N 37°30' E 025°09'4 9.0
2017-Apr-26 17:01N 37°33' E 025°06'16 5.9
2017-Apr-26 14:15N 37°42' E 024°48'1414.8
2017-Apr-26 13:19N 37°30' E 024°56'310.6
2017-Apr-26 13:00N 37°26' E 024°56'6 8.7
2017-Apr-26 12:20N 37°31' E 024°52'514.8
2017-Apr-26 12:00N 37°31' E 024°46'29 3.1
2017-Apr-26 02:38N 37°04' E 025°00'214.7
2017-Apr-26 02:30N 37°05' E 025°02'5 0.6
2017-Apr-25 18:38N 37°05' E 025°08'213.0
2017-Apr-25 18:31N 37°06' E 025°07'30 3.2
2017-Apr-25 08:51N 37°30' E 024°44'514.7
2017-Apr-25 08:30N 37°31' E 024°50'612.7
2017-Apr-25 08:00N 37°28' E 024°57'2 3.7
2017-Apr-25 07:30N 37°26' E 024°57'4 8.4
2017-Apr-25 07:00N 37°31' E 024°56'714.5
2017-Apr-25 06:30N 37°32' E 024°47'24 7.0
2017-Apr-25 03:07N 37°40' E 024°19'211.6
2017-Apr-25 02:56N 37°40' E 024°16'2 0.3
2017-Apr-24 19:35N 37°40' E 024°19'22 6.7
2017-Apr-24 16:20N 37°31' E 024°44'514.8
2017-Apr-24 16:00N 37°31' E 024°50'713.1
2017-Apr-24 15:31N 37°28' E 024°57'3 5.4
2017-Apr-24 15:00N 37°25' E 024°58'612.4
2017-Apr-24 14:30N 37°20' E 024°54'18 2.3
2017-Apr-24 06:56N 37°03' E 025°01'613.8
2017-Apr-24 06:30N 37°05' E 025°08'3 5.1
2017-Apr-24 06:00N 37°06' E 025°05'18 1.4
2017-Apr-23 17:46N 37°16' E 024°47'414.4
2017-Apr-23 17:31N 37°18' E 024°50'714.6
2017-Apr-23 17:00N 37°23' E 024°58'4 7.8
2017-Apr-23 16:30N 37°26' E 024°57'510.2
2017-Apr-23 15:59N 37°31' E 024°54'714.7
2017-Apr-23 15:30N 37°31' E 024°45'31 3.2
2017-Apr-23 05:56N 37°03' E 025°01'613.7
2017-Apr-23 05:30N 37°05' E 025°08'1 0.2
2017-Apr-23 01:36N 37°05' E 025°09'112.2
2017-Apr-23 01:30N 37°06' E 025°07'33 3.3
2017-Apr-22 15:39N 37°33' E 024°44'214.6
2017-Apr-22 15:30N 37°32' E 024°47'814.5
2017-Apr-22 14:58N 37°30' E 024°56'4 5.1
2017-Apr-22 14:12N 37°26' E 024°57'1014.5
2017-Apr-22 13:30N 37°28' E 025°09'714.7
2017-Apr-22 13:00N 37°28' E 025°18'2 4.3
2017-Apr-22 12:30N 37°26' E 025°17'714.0
2017-Apr-22 12:00N 37°19' E 025°15'714.4
2017-Apr-22 11:30N 37°12' E 025°12'714.4
2017-Apr-22 11:00N 37°06' E 025°08'1 1.6
2017-Apr-22 10:30N 37°07' E 025°08'714.1
2017-Apr-22 10:00N 37°10' E 025°16'612.8
2017-Apr-22 09:30N 37°06' E 025°22'3 6.7
2017-Apr-22 09:00N 37°04' E 025°19'5 0.3
2017-Apr-21 14:59N 36°59' E 025°17'714.8
2017-Apr-21 14:30N 37°06' E 025°21'7 7.3
2017-Apr-21 13:31N 37°09' E 025°13'510.6
2017-Apr-21 13:00N 37°05' E 025°09'2 4.7
2017-Apr-21 12:31N 37°08' E 025°08'714.8
2017-Apr-21 12:00N 37°14' E 025°12'715.0
2017-Apr-21 11:31N 37°21' E 025°16'713.9
2017-Apr-21 11:01N 37°28' E 025°19'4 7.4
2017-Apr-21 10:30N 37°27' E 025°15'714.5
2017-Apr-21 10:00N 37°27' E 025°06'713.4
2017-Apr-21 09:28N 37°26' E 024°57'3 6.2
2017-Apr-21 09:00N 37°29' E 024°57'713.9
2017-Apr-21 08:30N 37°32' E 024°49'5 0.2
2017-Apr-20 10:17N 37°31' E 024°44'414.3
2017-Apr-20 10:00N 37°31' E 024°49'713.6
2017-Apr-20 09:30N 37°29' E 024°57'3 5.7
2017-Apr-20 09:00N 37°26' E 024°56'4 8.1
2017-Apr-20 08:30N 37°30' E 024°57'714.7
2017-Apr-20 08:00N 37°37' E 024°52'6 2.9
2017-Apr-20 05:50N 37°43' E 024°52'515.0
2017-Apr-20 05:29N 37°39' E 024°57'714.9
2017-Apr-20 05:00N 37°35' E 025°04'510.1
2017-Apr-20 04:30N 37°32' E 025°09'714.8
2017-Apr-20 04:01N 37°25' E 025°08'815.1
2017-Apr-20 03:30N 37°17' E 025°08'815.1
2017-Apr-20 03:00N 37°09' E 025°07'4 0.6
2017-Apr-19 19:39N 37°05' E 025°09'1 8.9
2017-Apr-19 19:31N 37°05' E 025°07'714.5
2017-Apr-19 19:00N 37°13' E 025°08'714.5
2017-Apr-19 18:30N 37°20' E 025°08'714.5
2017-Apr-19 18:01N 37°27' E 025°09'510.0
2017-Apr-19 17:30N 37°32' E 025°09'714.5
2017-Apr-19 17:00N 37°36' E 025°01'1014.5
2017-Apr-19 16:18N 37°43' E 024°52'3 1.5
2017-Apr-19 14:26N 37°41' E 024°49'1314.6
2017-Apr-19 13:31N 37°29' E 024°57'3 5.2
2017-Apr-19 13:00N 37°27' E 024°58'612.6
2017-Apr-19 12:30N 37°32' E 024°52'29 3.0
2017-Apr-19 02:39N 37°03' E 025°01'214.4
2017-Apr-19 02:30N 37°05' E 025°03'5 0.6
2017-Apr-18 18:33N 37°05' E 025°09'0 3.3
2017-Apr-18 18:31N 37°05' E 025°09'612.1
2017-Apr-18 18:01N 37°04' E 025°01'30 3.3
2017-Apr-18 08:49N 37°30' E 024°44'514.7
2017-Apr-18 08:30N 37°31' E 024°49'713.2
2017-Apr-18 08:00N 37°28' E 024°57'2 4.3
2017-Apr-18 07:30N 37°26' E 024°56'5 9.3
2017-Apr-18 06:55N 37°31' E 024°54'614.2
2017-Apr-18 06:31N 37°32' E 024°47'3 0.2
2017-Apr-17 16:30N 37°30' E 024°44'714.3
2017-Apr-17 16:00N 37°31' E 024°52'611.8
2017-Apr-17 15:30N 37°26' E 024°57'3 5.3
2017-Apr-17 15:00N 37°24' E 024°59'714.2
2017-Apr-17 14:30N 37°19' E 024°52'  
Track history (hours):
 
Tides and Currents Weather Stations Pressure Air Temp Water Temp Dewpoint Dewpoint Depression Visibility Wind Speed Wind Dir Waves Ship Positions

Artemis

Last reported at 2017-Apr-27 10:14 UTC. Time now 2017-Apr-27 18:54 UTC.
Position N 37°30' E 024°44'.

Length 89 m; draft 3.4 m.

Type: Ship. MMSI: 237026300.

Date/timePositionNaut miles runAvg speedWind from/ knotsBaromVisibWave heightAir tempDewpointWater temp
2017-Apr-27 10:14N 37°30' E 024°44'314.8
2017-Apr-27 10:01N 37°31' E 024°48'713.9
2017-Apr-27 09:30N 37°30' E 024°57'3 6.2
2017-Apr-27 08:58N 37°26' E 024°56'4 8.9
2017-Apr-27 08:31N 37°30' E 024°56'714.7
2017-Apr-27 08:00N 37°37' E 024°52'7 3.5
2017-Apr-27 05:57N 37°44' E 024°50'814.8
2017-Apr-27 05:24N 37°39' E 024°58'614.6
2017-Apr-27 05:01N 37°35' E 025°03'510.5
2017-Apr-27 04:29N 37°32' E 025°09'714.6
2017-Apr-27 04:00N 37°25' E 025°08'714.5
2017-Apr-27 03:30N 37°18' E 025°08'714.6
2017-Apr-27 03:00N 37°10' E 025°08'5 0.7
2017-Apr-26 19:25N 37°05' E 025°08'2 6.0
2017-Apr-26 19:00N 37°07' E 025°07'714.9
2017-Apr-26 18:30N 37°15' E 025°09'714.9
2017-Apr-26 18:00N 37°22' E 025°09'815.0
2017-Apr-26 17:30N 37°30' E 025°09'4 9.0
2017-Apr-26 17:01N 37°33' E 025°06'16 5.9
2017-Apr-26 14:15N 37°42' E 024°48'1414.8
2017-Apr-26 13:19N 37°30' E 024°56'310.6
2017-Apr-26 13:00N 37°26' E 024°56'6 8.7
2017-Apr-26 12:20N 37°31' E 024°52'514.8
2017-Apr-26 12:00N 37°31' E 024°46'29 3.1
2017-Apr-26 02:38N 37°04' E 025°00'214.7
2017-Apr-26 02:30N 37°05' E 025°02'5 0.6
2017-Apr-25 18:38N 37°05' E 025°08'213.0
2017-Apr-25 18:31N 37°06' E 025°07'30 3.2
2017-Apr-25 08:51N 37°30' E 024°44'514.7
2017-Apr-25 08:30N 37°31' E 024°50'612.7
2017-Apr-25 08:00N 37°28' E 024°57'2 3.7
2017-Apr-25 07:30N 37°26' E 024°57'4 8.4
2017-Apr-25 07:00N 37°31' E 024°56'714.5
2017-Apr-25 06:30N 37°32' E 024°47'24 7.0
2017-Apr-25 03:07N 37°40' E 024°19'211.6
2017-Apr-25 02:56N 37°40' E 024°16'2 0.3
2017-Apr-24 19:35N 37°40' E 024°19'22 6.7
2017-Apr-24 16:20N 37°31' E 024°44'514.8
2017-Apr-24 16:00N 37°31' E 024°50'713.1
2017-Apr-24 15:31N 37°28' E 024°57'3 5.4
2017-Apr-24 15:00N 37°25' E 024°58'612.4
2017-Apr-24 14:30N 37°20' E 024°54'18 2.3
2017-Apr-24 06:56N 37°03' E 025°01'613.8
2017-Apr-24 06:30N 37°05' E 025°08'3 5.1
2017-Apr-24 06:00N 37°06' E 025°05'18 1.4
2017-Apr-23 17:46N 37°16' E 024°47'414.4
2017-Apr-23 17:31N 37°18' E 024°50'714.6
2017-Apr-23 17:00N 37°23' E 024°58'4 7.8
2017-Apr-23 16:30N 37°26' E 024°57'510.2
2017-Apr-23 15:59N 37°31' E 024°54'714.7
2017-Apr-23 15:30N 37°31' E 024°45'31 3.2
2017-Apr-23 05:56N 37°03' E 025°01'613.7
2017-Apr-23 05:30N 37°05' E 025°08'1 0.2
2017-Apr-23 01:36N 37°05' E 025°09'112.2
2017-Apr-23 01:30N 37°06' E 025°07'33 3.3
2017-Apr-22 15:39N 37°33' E 024°44'214.6
2017-Apr-22 15:30N 37°32' E 024°47'814.5
2017-Apr-22 14:58N 37°30' E 024°56'4 5.1
2017-Apr-22 14:12N 37°26' E 024°57'1014.5
2017-Apr-22 13:30N 37°28' E 025°09'714.7
2017-Apr-22 13:00N 37°28' E 025°18'2 4.3
2017-Apr-22 12:30N 37°26' E 025°17'714.0
2017-Apr-22 12:00N 37°19' E 025°15'714.4
2017-Apr-22 11:30N 37°12' E 025°12'714.4
2017-Apr-22 11:00N 37°06' E 025°08'1 1.6
2017-Apr-22 10:30N 37°07' E 025°08'714.1
2017-Apr-22 10:00N 37°10' E 025°16'612.8
2017-Apr-22 09:30N 37°06' E 025°22'3 6.7
2017-Apr-22 09:00N 37°04' E 025°19'5 0.3
2017-Apr-21 14:59N 36°59' E 025°17'714.8
2017-Apr-21 14:30N 37°06' E 025°21'7 7.3
2017-Apr-21 13:31N 37°09' E 025°13'510.6
2017-Apr-21 13:00N 37°05' E 025°09'2 4.7
2017-Apr-21 12:31N 37°08' E 025°08'714.8
2017-Apr-21 12:00N 37°14' E 025°12'715.0
2017-Apr-21 11:31N 37°21' E 025°16'713.9
2017-Apr-21 11:01N 37°28' E 025°19'4 7.4
2017-Apr-21 10:30N 37°27' E 025°15'714.5
2017-Apr-21 10:00N 37°27' E 025°06'713.4
2017-Apr-21 09:28N 37°26' E 024°57'3 6.2
2017-Apr-21 09:00N 37°29' E 024°57'713.9
2017-Apr-21 08:30N 37°32' E 024°49'5 0.2
2017-Apr-20 10:17N 37°31' E 024°44'414.3
2017-Apr-20 10:00N 37°31' E 024°49'713.6
2017-Apr-20 09:30N 37°29' E 024°57'3 5.7
2017-Apr-20 09:00N 37°26' E 024°56'4 8.1
2017-Apr-20 08:30N 37°30' E 024°57'714.7
2017-Apr-20 08:00N 37°37' E 024°52'6 2.9
2017-Apr-20 05:50N 37°43' E 024°52'515.0
2017-Apr-20 05:29N 37°39' E 024°57'714.9
2017-Apr-20 05:00N 37°35' E 025°04'510.1
2017-Apr-20 04:30N 37°32' E 025°09'714.8
2017-Apr-20 04:01N 37°25' E 025°08'815.1
2017-Apr-20 03:30N 37°17' E 025°08'815.1
2017-Apr-20 03:00N 37°09' E 025°07'4 0.6
2017-Apr-19 19:39N 37°05' E 025°09'1 8.9
2017-Apr-19 19:31N 37°05' E 025°07'714.5
2017-Apr-19 19:00N 37°13' E 025°08'714.5
2017-Apr-19 18:30N 37°20' E 025°08'714.5
2017-Apr-19 18:01N 37°27' E 025°09'510.0
2017-Apr-19 17:30N 37°32' E 025°09'714.5
2017-Apr-19 17:00N 37°36' E 025°01'1014.5
2017-Apr-19 16:18N 37°43' E 024°52'3 1.5
2017-Apr-19 14:26N 37°41' E 024°49'1314.6
2017-Apr-19 13:31N 37°29' E 024°57'3 5.2
2017-Apr-19 13:00N 37°27' E 024°58'612.6
2017-Apr-19 12:30N 37°32' E 024°52'29 3.0
2017-Apr-19 02:39N 37°03' E 025°01'214.4
2017-Apr-19 02:30N 37°05' E 025°03'5 0.6
2017-Apr-18 18:33N 37°05' E 025°09'0 3.3
2017-Apr-18 18:31N 37°05' E 025°09'612.1
2017-Apr-18 18:01N 37°04' E 025°01'30 3.3
2017-Apr-18 08:49N 37°30' E 024°44'514.7
2017-Apr-18 08:30N 37°31' E 024°49'713.2
2017-Apr-18 08:00N 37°28' E 024°57'2 4.3
2017-Apr-18 07:30N 37°26' E 024°56'5 9.3
2017-Apr-18 06:55N 37°31' E 024°54'614.2
2017-Apr-18 06:31N 37°32' E 024°47'3 0.2
2017-Apr-17 16:30N 37°30' E 024°44'714.3
2017-Apr-17 16:00N 37°31' E 024°52'611.8
2017-Apr-17 15:30N 37°26' E 024°57'3 5.3
2017-Apr-17 15:00N 37°24' E 024°59'714.2
2017-Apr-17 14:30N 37°19' E 024°52'  

Dump ship's entire track history